createdAt,value
2023-03-31T00:01:10.104Z,10.00
2023-03-31T00:03:43.661Z,10.00
2023-03-31T00:06:18.118Z,10.00
2023-03-31T00:08:47.159Z,10.00
2023-03-31T00:11:14.991Z,10.00
2023-03-31T00:13:42.661Z,10.00
2023-03-31T00:16:11.287Z,10.00
2023-03-31T00:18:47.124Z,10.00
2023-03-31T00:21:24.787Z,10.00
2023-03-31T00:23:54.664Z,10.00
2023-03-31T00:26:22.699Z,10.00
2023-03-31T00:28:50.859Z,10.00
2023-03-31T00:31:18.646Z,10.00
2023-03-31T00:33:47.921Z,10.00
2023-03-31T00:36:21.050Z,10.00
2023-03-31T00:38:48.982Z,10.00
2023-03-31T00:41:16.905Z,10.00
2023-03-31T00:44:06.386Z,10.00
2023-03-31T00:46:35.329Z,10.00
2023-03-31T00:49:04.631Z,10.00
2023-03-31T00:51:35.566Z,10.00
2023-03-31T00:54:06.533Z,10.00
2023-03-31T00:56:37.271Z,9.90
2023-03-31T00:59:09.691Z,9.90
2023-03-31T01:01:42.741Z,9.90
2023-03-31T01:04:16.682Z,9.90
2023-03-31T01:06:52.716Z,9.90
2023-03-31T01:09:22.720Z,9.90
2023-03-31T01:11:50.447Z,9.90
2023-03-31T01:14:18.225Z,9.90
2023-03-31T01:16:46.344Z,9.90
2023-03-31T01:22:49.393Z,9.90
2023-03-31T01:25:42.593Z,9.90
2023-03-31T01:28:20.755Z,9.90
2023-03-31T01:31:12.773Z,9.90
2023-03-31T01:34:16.362Z,9.90
2023-03-31T01:37:32.677Z,9.90
2023-03-31T01:40:15.297Z,9.90
2023-03-31T01:42:49.719Z,9.90
2023-03-31T01:45:28.177Z,9.90
2023-03-31T01:47:59.099Z,9.80
2023-03-31T01:50:31.954Z,9.80
2023-03-31T01:53:04.625Z,9.80
2023-03-31T01:55:37.715Z,9.80
2023-03-31T01:58:11.945Z,9.80
2023-03-31T02:00:43.998Z,9.80
2023-03-31T02:03:18.441Z,9.80
2023-03-31T02:05:51.527Z,9.80
2023-03-31T02:08:23.944Z,9.80
2023-03-31T02:10:54.540Z,9.80
2023-03-31T02:13:23.619Z,9.80
2023-03-31T02:15:55.571Z,9.80
2023-03-31T02:18:26.969Z,9.80
2023-03-31T02:20:57.386Z,9.80
2023-03-31T02:23:29.419Z,9.80
2023-03-31T02:26:02.964Z,9.80
2023-03-31T02:28:31.279Z,9.80
2023-03-31T02:31:08.468Z,9.80
2023-03-31T02:33:36.777Z,9.70
2023-03-31T02:36:05.794Z,9.80
2023-03-31T02:38:38.013Z,9.80
2023-03-31T02:41:07.197Z,9.80
2023-03-31T02:43:34.925Z,9.80
2023-03-31T02:46:02.679Z,9.80
2023-03-31T02:48:34.737Z,9.80
2023-03-31T02:51:20.183Z,9.80
2023-03-31T02:54:15.225Z,9.80
2023-03-31T02:56:59.936Z,9.70
2023-03-31T02:59:38.419Z,9.70
2023-03-31T03:02:18.743Z,9.70
2023-03-31T03:05:09.627Z,9.70
2023-03-31T03:07:43.201Z,9.70
2023-03-31T03:10:16.060Z,9.70
2023-03-31T03:12:52.363Z,9.70
2023-03-31T03:15:26.399Z,9.70
2023-03-31T03:17:55.681Z,9.70
2023-03-31T03:20:23.728Z,9.70
2023-03-31T03:22:51.560Z,9.70
2023-03-31T03:25:20.281Z,9.70
2023-03-31T03:27:49.263Z,9.70
2023-03-31T03:30:17.055Z,9.70
2023-03-31T03:32:44.839Z,9.70
2023-03-31T03:35:12.974Z,9.70
2023-03-31T03:37:40.760Z,9.70
2023-03-31T03:40:10.353Z,9.70
2023-03-31T03:42:38.405Z,9.70
2023-03-31T03:45:08.683Z,9.70
2023-03-31T03:47:36.642Z,9.60
2023-03-31T03:50:05.218Z,9.60
2023-03-31T03:52:32.920Z,9.60
2023-03-31T03:55:01.653Z,9.60
2023-03-31T03:57:29.426Z,9.60
2023-03-31T03:59:57.171Z,9.60
2023-03-31T04:02:28.373Z,9.60
2023-03-31T04:04:56.251Z,9.60
2023-03-31T04:07:23.954Z,9.60
2023-03-31T04:09:51.614Z,9.60
2023-03-31T04:12:19.310Z,9.60
2023-03-31T04:14:47.002Z,9.60
2023-03-31T04:17:15.776Z,9.60
2023-03-31T04:19:44.893Z,9.60
2023-03-31T04:22:15.238Z,9.50
2023-03-31T04:24:46.492Z,9.60
2023-03-31T04:27:17.220Z,9.60
2023-03-31T04:29:54.511Z,9.50
2023-03-31T04:32:22.554Z,9.50
2023-03-31T04:34:51.631Z,9.50
2023-03-31T04:37:19.385Z,9.50
2023-03-31T04:39:50.520Z,9.50
2023-03-31T04:42:18.195Z,9.50
2023-03-31T04:44:45.874Z,9.50
2023-03-31T04:47:13.542Z,9.50
2023-03-31T04:49:41.229Z,9.50
2023-03-31T04:52:10.233Z,9.50
2023-03-31T04:54:37.903Z,9.50
2023-03-31T04:57:05.705Z,9.40
2023-03-31T04:59:33.429Z,9.50
2023-03-31T05:02:01.241Z,9.50
2023-03-31T05:04:28.907Z,9.50
2023-03-31T05:06:56.660Z,9.50
2023-03-31T05:09:25.901Z,9.50
2023-03-31T05:11:53.593Z,9.40
2023-03-31T05:14:21.742Z,9.40
2023-03-31T05:16:49.523Z,9.40
2023-03-31T05:19:18.150Z,9.40
2023-03-31T05:21:46.592Z,9.40
2023-03-31T05:24:14.874Z,9.40
2023-03-31T05:26:47.974Z,9.30
2023-03-31T05:29:16.519Z,9.30
2023-03-31T05:31:44.384Z,9.30
2023-03-31T05:34:12.179Z,9.30
2023-03-31T05:36:39.883Z,9.30
2023-03-31T05:39:08.600Z,9.30
2023-03-31T05:41:36.322Z,9.30
2023-03-31T05:44:05.550Z,9.30
2023-03-31T05:46:33.530Z,9.30
2023-03-31T05:49:02.280Z,9.30
2023-03-31T05:51:30.246Z,9.30
2023-03-31T05:53:57.918Z,9.30
2023-03-31T05:56:27.413Z,9.30
2023-03-31T05:58:55.147Z,9.30
2023-03-31T06:01:24.939Z,9.20
2023-03-31T06:03:52.810Z,9.30
2023-03-31T06:06:21.265Z,9.20
2023-03-31T06:08:49.644Z,9.20
2023-03-31T06:11:19.293Z,9.20
2023-03-31T06:13:47.540Z,9.20
2023-03-31T06:16:17.305Z,9.20
2023-03-31T06:18:46.550Z,9.20
2023-03-31T06:21:16.232Z,9.20
2023-03-31T06:23:45.171Z,9.20
2023-03-31T06:26:15.205Z,9.20
2023-03-31T06:28:42.976Z,9.20
2023-03-31T06:31:13.157Z,9.20
2023-03-31T06:33:42.151Z,9.20
2023-03-31T06:36:13.156Z,9.20
2023-03-31T06:38:41.344Z,9.10
2023-03-31T06:41:12.241Z,9.20
2023-03-31T06:43:40.248Z,9.10
2023-03-31T06:46:08.278Z,9.20
2023-03-31T06:48:36.879Z,9.10
2023-03-31T06:51:07.471Z,9.10
2023-03-31T06:53:36.542Z,9.10
2023-03-31T06:56:05.190Z,9.20
2023-03-31T06:58:33.308Z,9.20
2023-03-31T07:01:03.778Z,9.20
2023-03-31T07:03:32.111Z,9.20
2023-03-31T07:06:00.166Z,9.20
2023-03-31T07:08:27.899Z,9.20
2023-03-31T07:10:58.836Z,9.20
2023-03-31T07:13:27.510Z,9.20
2023-03-31T07:15:56.115Z,9.20
2023-03-31T07:18:25.884Z,9.20
2023-03-31T07:20:53.816Z,9.20
2023-03-31T07:23:21.840Z,9.20
2023-03-31T07:25:49.927Z,9.20
2023-03-31T07:28:18.941Z,9.30
2023-03-31T07:30:46.642Z,9.30
2023-03-31T07:33:14.466Z,9.30
2023-03-31T07:35:42.837Z,9.40
2023-03-31T07:38:11.198Z,9.40
2023-03-31T07:40:39.638Z,9.40
2023-03-31T07:43:07.669Z,9.50
2023-03-31T07:45:36.802Z,9.50
2023-03-31T07:48:04.827Z,9.50
2023-03-31T07:50:32.536Z,9.60
2023-03-31T07:53:00.202Z,9.60
2023-03-31T07:55:27.872Z,9.60
2023-03-31T07:57:55.735Z,9.60
2023-03-31T08:00:24.593Z,9.70
2023-03-31T08:02:54.060Z,9.70
2023-03-31T08:05:22.314Z,9.70
2023-03-31T08:07:51.316Z,9.80
2023-03-31T08:10:22.617Z,9.80
2023-03-31T08:12:50.691Z,9.80
2023-03-31T08:15:19.172Z,9.90
2023-03-31T08:17:46.951Z,10.00
2023-03-31T08:20:16.019Z,10.10
2023-03-31T08:22:43.712Z,10.20
2023-03-31T08:25:11.640Z,10.30
2023-03-31T08:27:41.295Z,10.40
2023-03-31T08:30:11.355Z,10.40
2023-03-31T08:32:39.093Z,10.50
2023-03-31T08:35:08.425Z,10.40
2023-03-31T08:37:37.912Z,10.50
2023-03-31T08:40:09.458Z,10.50
2023-03-31T08:42:42.730Z,10.50
2023-03-31T08:45:18.110Z,10.50
2023-03-31T08:47:48.766Z,10.50
2023-03-31T08:50:19.803Z,10.50
2023-03-31T08:52:52.928Z,10.60
2023-03-31T08:55:26.702Z,10.70
2023-03-31T08:58:00.854Z,10.80
2023-03-31T09:00:41.016Z,10.90
2023-03-31T09:03:20.070Z,11.00
2023-03-31T09:06:01.194Z,11.00
2023-03-31T09:08:41.930Z,11.10
2023-03-31T09:11:13.599Z,11.20
2023-03-31T09:14:06.491Z,11.20
2023-03-31T09:16:39.733Z,11.30
2023-03-31T09:19:15.582Z,11.30
2023-03-31T09:21:45.365Z,11.40
2023-03-31T09:24:19.869Z,11.50
2023-03-31T09:26:52.816Z,11.50
2023-03-31T09:29:27.059Z,11.60
2023-03-31T09:31:56.097Z,11.70
2023-03-31T09:34:28.007Z,11.70
2023-03-31T09:36:55.719Z,11.80
2023-03-31T09:39:24.826Z,11.80
2023-03-31T09:41:55.468Z,11.80
2023-03-31T09:44:27.826Z,11.80
2023-03-31T09:46:56.602Z,11.90
2023-03-31T09:49:26.828Z,11.90
2023-03-31T09:52:03.349Z,11.90
2023-03-31T09:54:37.830Z,12.00
2023-03-31T09:57:15.719Z,12.10
2023-03-31T09:59:45.765Z,12.20
2023-03-31T10:02:34.974Z,12.30
2023-03-31T10:05:03.377Z,12.40
2023-03-31T10:07:31.620Z,12.50
2023-03-31T10:10:00.998Z,12.50
2023-03-31T10:12:30.971Z,12.40
2023-03-31T10:15:15.421Z,12.40
2023-03-31T10:17:54.835Z,12.40
2023-03-31T10:20:33.978Z,12.40
2023-03-31T10:23:07.909Z,12.40
2023-03-31T10:25:36.918Z,12.40
2023-03-31T10:28:05.090Z,12.50
2023-03-31T10:30:38.069Z,12.60
2023-03-31T10:33:22.863Z,12.70
2023-03-31T10:35:56.256Z,12.90
2023-03-31T10:38:27.680Z,13.00
2023-03-31T10:40:58.867Z,13.20
2023-03-31T10:43:28.673Z,13.30
2023-03-31T10:45:57.569Z,13.40
2023-03-31T10:48:27.764Z,13.60
2023-03-31T10:50:59.441Z,13.60
2023-03-31T10:53:27.132Z,13.70
2023-03-31T10:56:10.055Z,13.70
2023-03-31T10:59:14.316Z,13.70
2023-03-31T11:01:54.310Z,13.70
2023-03-31T11:04:43.204Z,13.70
2023-03-31T11:07:24.955Z,13.70
2023-03-31T11:10:04.135Z,13.80
2023-03-31T11:12:39.516Z,13.90
2023-03-31T11:15:20.735Z,13.90
2023-03-31T11:18:01.191Z,13.90
2023-03-31T11:20:35.866Z,13.80
2023-03-31T11:23:15.431Z,13.70
2023-03-31T11:25:53.395Z,13.70
2023-03-31T11:28:39.957Z,13.70
2023-03-31T11:31:33.071Z,13.80
2023-03-31T11:34:21.880Z,13.90
2023-03-31T11:37:11.696Z,14.10
2023-03-31T11:39:52.801Z,14.20
2023-03-31T11:42:26.753Z,14.10
2023-03-31T11:45:01.030Z,13.90
2023-03-31T11:47:32.053Z,13.70
2023-03-31T11:50:04.595Z,13.50
2023-03-31T11:52:35.649Z,13.40
2023-03-31T11:55:08.945Z,13.20
2023-03-31T11:57:42.644Z,13.20
2023-03-31T12:00:19.629Z,13.10
2023-03-31T12:02:52.184Z,13.10
2023-03-31T12:05:21.578Z,13.10
2023-03-31T12:07:56.763Z,13.10
2023-03-31T12:10:32.238Z,13.00
2023-03-31T12:13:05.975Z,13.10
2023-03-31T12:15:40.581Z,13.10
2023-03-31T12:18:14.670Z,13.10
2023-03-31T12:20:46.285Z,13.20
2023-03-31T12:23:18.198Z,13.20
2023-03-31T12:25:52.233Z,13.30
2023-03-31T12:28:21.233Z,13.30
2023-03-31T12:30:52.580Z,13.40
2023-03-31T12:33:27.822Z,13.40
2023-03-31T12:36:11.965Z,13.40
2023-03-31T12:38:53.742Z,13.40
2023-03-31T12:41:28.006Z,13.30
2023-03-31T12:44:29.038Z,13.30
2023-03-31T12:47:12.310Z,13.20
2023-03-31T12:49:53.521Z,13.20
2023-03-31T12:52:27.981Z,13.20
2023-03-31T12:55:31.009Z,13.20
2023-03-31T12:58:34.668Z,13.10
2023-03-31T13:01:08.130Z,13.10
2023-03-31T13:03:49.100Z,13.10
2023-03-31T13:06:51.716Z,13.10
2023-03-31T13:09:42.464Z,13.10
2023-03-31T13:12:15.330Z,13.00
2023-03-31T13:14:45.688Z,13.00
2023-03-31T13:17:21.345Z,13.00
2023-03-31T13:19:51.196Z,13.00
2023-03-31T13:22:36.687Z,13.00
2023-03-31T13:25:46.991Z,13.00
2023-03-31T13:28:34.156Z,13.00
2023-03-31T13:31:03.605Z,13.00
2023-03-31T13:33:42.022Z,12.90
2023-03-31T13:36:30.797Z,12.90
2023-03-31T13:39:13.296Z,12.80
2023-03-31T13:41:53.200Z,12.80
2023-03-31T13:44:55.457Z,12.80
2023-03-31T13:47:45.542Z,12.80
2023-03-31T13:50:32.208Z,12.80
2023-03-31T13:53:10.135Z,12.80
2023-03-31T13:55:56.004Z,12.80
2023-03-31T13:58:35.687Z,12.80
2023-03-31T14:01:40.940Z,12.80
2023-03-31T14:04:22.087Z,12.70
2023-03-31T14:06:54.425Z,12.70
2023-03-31T14:09:27.638Z,12.70
2023-03-31T14:11:56.506Z,12.70
2023-03-31T14:14:26.303Z,12.70
2023-03-31T14:16:57.805Z,12.70
2023-03-31T14:19:45.199Z,12.70
2023-03-31T14:22:20.890Z,12.70
2023-03-31T14:24:57.199Z,12.70
2023-03-31T14:27:41.086Z,12.70
2023-03-31T14:30:19.971Z,12.70
2023-03-31T14:32:57.991Z,12.70
2023-03-31T14:35:32.349Z,12.70
2023-03-31T14:38:04.259Z,12.80
2023-03-31T14:40:33.324Z,12.80
2023-03-31T14:43:01.389Z,12.90
2023-03-31T14:45:34.407Z,12.90
2023-03-31T14:48:10.633Z,12.90
2023-03-31T14:50:38.528Z,12.90
2023-03-31T14:53:14.673Z,12.90
2023-03-31T14:55:57.973Z,12.90
2023-03-31T14:58:29.720Z,12.90
2023-03-31T15:00:57.493Z,12.80
2023-03-31T15:03:27.358Z,12.80
2023-03-31T15:05:59.263Z,12.80
2023-03-31T15:08:27.881Z,12.80
2023-03-31T15:11:11.890Z,12.70
2023-03-31T15:13:56.708Z,12.70
2023-03-31T15:16:36.006Z,12.70
2023-03-31T15:19:12.130Z,12.70
2023-03-31T15:21:39.998Z,12.70
2023-03-31T15:24:08.044Z,12.70
2023-03-31T15:26:42.073Z,12.70
2023-03-31T15:29:14.258Z,12.60
2023-03-31T15:31:42.119Z,12.60
2023-03-31T15:34:15.975Z,12.60
2023-03-31T15:36:44.608Z,12.50
2023-03-31T15:39:14.427Z,12.50
2023-03-31T15:41:43.826Z,12.50
2023-03-31T15:44:31.005Z,12.50
2023-03-31T15:47:01.293Z,12.40
2023-03-31T15:49:30.209Z,12.40
2023-03-31T15:52:00.337Z,12.30
2023-03-31T15:54:33.817Z,12.20
2023-03-31T15:57:04.608Z,12.20
2023-03-31T15:59:54.588Z,12.10
2023-03-31T16:02:25.737Z,12.10
2023-03-31T16:04:58.802Z,12.00
2023-03-31T16:07:29.541Z,11.90
2023-03-31T16:10:01.123Z,11.90
2023-03-31T16:12:33.785Z,11.80
2023-03-31T16:15:05.717Z,11.70
2023-03-31T16:17:37.560Z,11.60
2023-03-31T16:20:10.785Z,11.60
2023-03-31T16:22:42.541Z,11.60
2023-03-31T16:25:12.563Z,11.60
2023-03-31T16:27:44.760Z,11.50
2023-03-31T16:30:15.330Z,11.50
2023-03-31T16:33:02.493Z,11.50
2023-03-31T16:35:33.195Z,11.50
2023-03-31T16:38:01.695Z,11.50
2023-03-31T16:40:32.595Z,11.50
2023-03-31T16:43:15.656Z,11.50
2023-03-31T16:45:46.813Z,11.50
2023-03-31T16:48:16.645Z,11.40
2023-03-31T16:50:46.416Z,11.40
2023-03-31T16:53:14.720Z,11.40
2023-03-31T16:55:42.498Z,11.30
2023-03-31T16:58:10.418Z,11.20
2023-03-31T17:00:40.302Z,11.20
2023-03-31T17:03:09.856Z,11.20
2023-03-31T17:05:39.221Z,11.10
2023-03-31T17:08:08.365Z,11.10
2023-03-31T17:10:36.234Z,11.10
2023-03-31T17:13:03.976Z,11.00
2023-03-31T17:15:31.744Z,11.00
2023-03-31T17:18:00.805Z,11.00
2023-03-31T17:20:28.646Z,10.90
2023-03-31T17:22:56.613Z,10.90
2023-03-31T17:25:24.407Z,10.90
2023-03-31T17:27:52.102Z,10.90
2023-03-31T17:30:20.402Z,10.90
2023-03-31T17:32:49.902Z,10.90
2023-03-31T17:35:21.618Z,10.90
2023-03-31T17:37:53.311Z,10.90
2023-03-31T17:40:21.047Z,10.80
2023-03-31T17:42:49.431Z,10.80
2023-03-31T17:45:17.350Z,10.80
2023-03-31T17:47:46.063Z,10.80
2023-03-31T17:50:13.810Z,10.80
2023-03-31T17:52:42.842Z,10.80
2023-03-31T17:55:11.549Z,10.80
2023-03-31T17:57:40.502Z,10.80
2023-03-31T18:00:10.205Z,10.80
2023-03-31T18:02:38.309Z,10.80
2023-03-31T18:05:06.660Z,10.80
2023-03-31T18:07:34.766Z,10.80
2023-03-31T18:10:05.697Z,10.80
2023-03-31T18:12:34.288Z,10.80
2023-03-31T18:15:03.718Z,10.80
2023-03-31T18:17:31.634Z,10.80
2023-03-31T18:19:59.577Z,10.80
2023-03-31T18:22:27.410Z,10.80
2023-03-31T18:24:55.468Z,10.80
2023-03-31T18:27:25.185Z,10.80
2023-03-31T18:29:53.277Z,10.80
2023-03-31T18:32:21.263Z,10.80
2023-03-31T18:34:49.211Z,10.80
2023-03-31T18:37:17.022Z,10.70
2023-03-31T18:39:44.706Z,10.70
2023-03-31T18:42:12.541Z,10.70
2023-03-31T18:44:41.554Z,10.70
2023-03-31T18:47:09.333Z,10.70
2023-03-31T18:49:37.244Z,10.70
2023-03-31T18:52:05.354Z,10.70
2023-03-31T18:54:33.293Z,10.70
2023-03-31T18:57:01.786Z,10.70
2023-03-31T18:59:29.518Z,10.60
2023-03-31T19:01:58.572Z,10.60
2023-03-31T19:04:26.904Z,10.60
2023-03-31T19:06:55.832Z,10.60
2023-03-31T19:09:25.981Z,10.60
2023-03-31T19:11:54.137Z,10.60
2023-03-31T19:14:22.005Z,10.50
2023-03-31T19:16:49.735Z,10.50
2023-03-31T19:19:18.813Z,10.50
2023-03-31T19:21:47.075Z,10.50
2023-03-31T19:24:14.819Z,10.40
2023-03-31T19:26:43.420Z,10.40
2023-03-31T19:29:11.089Z,10.40
2023-03-31T19:31:40.374Z,10.40
2023-03-31T19:34:11.020Z,10.40
2023-03-31T19:36:40.324Z,10.40
2023-03-31T19:39:08.161Z,10.40
2023-03-31T19:41:36.546Z,10.30
2023-03-31T19:44:04.381Z,10.30
2023-03-31T19:46:32.142Z,10.30
2023-03-31T19:49:00.048Z,10.30
2023-03-31T19:51:28.318Z,10.20
2023-03-31T19:53:58.404Z,10.20
2023-03-31T19:56:26.882Z,10.20
2023-03-31T19:58:54.812Z,10.20
2023-03-31T20:01:25.764Z,10.20
2023-03-31T20:03:54.560Z,10.10
2023-03-31T20:06:24.060Z,10.10
2023-03-31T20:08:54.160Z,10.10
2023-03-31T20:11:24.255Z,10.10
2023-03-31T20:13:52.393Z,10.00
2023-03-31T20:16:22.320Z,10.00
2023-03-31T20:18:53.164Z,10.00
2023-03-31T20:21:23.747Z,10.00
2023-03-31T20:23:51.617Z,10.00
2023-03-31T20:26:21.895Z,10.00
2023-03-31T20:28:51.886Z,9.90
2023-03-31T20:31:21.658Z,9.90
2023-03-31T20:33:50.375Z,9.90
2023-03-31T20:36:19.906Z,9.90
2023-03-31T20:38:50.907Z,9.90
2023-03-31T20:41:20.662Z,9.90
2023-03-31T20:43:50.404Z,9.90
2023-03-31T20:46:18.887Z,9.90
2023-03-31T20:48:48.380Z,9.90
2023-03-31T20:51:18.328Z,9.90
2023-03-31T20:53:48.653Z,9.90
2023-03-31T20:56:19.609Z,9.90
2023-03-31T20:58:47.821Z,9.90
2023-03-31T21:01:19.678Z,9.90
2023-03-31T21:03:48.785Z,9.80
2023-03-31T21:06:18.086Z,9.80
2023-03-31T21:08:47.537Z,9.80
2023-03-31T21:11:15.487Z,9.80
2023-03-31T21:13:44.689Z,9.80
2023-03-31T21:16:13.146Z,9.80
2023-03-31T21:18:42.389Z,9.80
2023-03-31T21:21:13.360Z,9.80
2023-03-31T21:23:41.103Z,9.70
2023-03-31T21:26:10.118Z,9.70
2023-03-31T21:28:39.553Z,9.70
2023-03-31T21:31:09.282Z,9.60
2023-03-31T21:33:38.551Z,9.70
2023-03-31T21:36:09.931Z,9.60
2023-03-31T21:38:38.062Z,9.60
2023-03-31T21:41:06.837Z,9.60
2023-03-31T21:43:35.220Z,9.60
2023-03-31T21:46:02.997Z,9.60
2023-03-31T21:48:31.182Z,9.60
2023-03-31T21:51:00.503Z,9.60
2023-03-31T21:53:31.006Z,9.60
2023-03-31T21:55:59.135Z,9.60
2023-03-31T21:58:29.255Z,9.50
2023-03-31T22:00:57.895Z,9.50
2023-03-31T22:03:28.510Z,9.50
2023-03-31T22:05:56.589Z,9.50
2023-03-31T22:08:24.363Z,9.50
2023-03-31T22:10:53.970Z,9.40
2023-03-31T22:13:22.881Z,9.40
2023-03-31T22:15:50.933Z,9.40
2023-03-31T22:18:18.678Z,9.40
2023-03-31T22:20:46.431Z,9.40
2023-03-31T22:23:14.855Z,9.40
2023-03-31T22:25:42.598Z,9.40
2023-03-31T22:28:12.493Z,9.40
2023-03-31T22:30:40.222Z,9.40
2023-03-31T22:33:07.996Z,9.40
2023-03-31T22:35:35.875Z,9.40
2023-03-31T22:38:04.925Z,9.40
2023-03-31T22:40:33.805Z,9.40
2023-03-31T22:43:01.493Z,9.40
2023-03-31T22:45:30.973Z,9.40
2023-03-31T22:47:58.945Z,9.40
2023-03-31T22:50:27.120Z,9.40
2023-03-31T22:52:54.798Z,9.40
2023-03-31T22:55:22.828Z,9.40
2023-03-31T22:57:50.616Z,9.40
2023-03-31T23:00:18.571Z,9.30
2023-03-31T23:02:47.652Z,9.30
2023-03-31T23:05:15.639Z,9.30
2023-03-31T23:07:43.321Z,9.30
2023-03-31T23:10:11.268Z,9.30
2023-03-31T23:12:38.972Z,9.30
2023-03-31T23:15:07.244Z,9.20
2023-03-31T23:17:34.957Z,9.20
2023-03-31T23:20:06.298Z,9.20
2023-03-31T23:22:34.832Z,9.20
2023-03-31T23:25:02.593Z,9.10
2023-03-31T23:30:26.158Z,9.10
2023-03-31T23:32:55.219Z,9.10
2023-03-31T23:35:24.410Z,9.10
2023-03-31T23:37:52.114Z,9.10
2023-03-31T23:40:19.779Z,9.00
2023-03-31T23:42:47.456Z,9.00
2023-03-31T23:45:15.294Z,9.00
2023-03-31T23:47:43.000Z,9.00
2023-03-31T23:50:11.334Z,8.90
2023-03-31T23:52:40.510Z,8.90
2023-03-31T23:55:08.633Z,8.90
2023-03-31T23:57:36.559Z,8.90
